Terminal Aerodrome Forecast
Issued by NWS Sioux Falls, SD

Home | Current Version | Previous Version | Text Only | Print | Product List | Glossary On
Versions: 1 2 3 4 5 6 7 8 9 10 11 12 13
000
FTUS43 KFSD 181700
TAFFSD
TAF
KFSD 181720Z 1818/1918 27009KT P6SM SKC
     FM182100 28012G19KT P6SM FEW060
     FM190000 30007KT P6SM SCT060
     FM190300 30004KT P6SM SKC
     FM191500 31007KT P6SM SKC=

USA.gov is the U.S. government's official web portal to all federal, state and local government web resources and services.